Rising Sun, Montana
Current Conditions -  °F | °C
As of 1:55 AM on Sunday 26 Oct 2014 (Local Time) from KGPI Reporting Station
Scattered Clouds Scattered Clouds  
Wind Chill: 41°   Ceiling: Unl
Heat Index: 44°   Visibility: 10mi
Dew Point: 42°   Wind: 6mph
Humidity: 93%   Direction: 40°NE
Pressure: 29.61"   Gusts: NA
Location:  48.7064°N, 113.591°W
Report Text: KGPI 260755Z AUTO 04005KT 10SM SCT070 07/06 A2961 RMK AO2 RAB07E16 SLP032 P0000 T00670056
Loading
Personal Weather Stations






























Interactive Weather Map New forecast layout! Learn more

10-Day Weather Forecast

Advertisements
Track Severe Weather on mobile